sensor_id;sensor_type;location;lat;lon;timestamp;temperature;humidity
10384;DHT22;5238;43.508;4.980;2024-03-22T00:02:08;18.50;91.30
10384;DHT22;5238;43.508;4.980;2024-03-22T00:04:35;18.40;91.30
10384;DHT22;5238;43.508;4.980;2024-03-22T00:07:01;18.30;91.30
10384;DHT22;5238;43.508;4.980;2024-03-22T00:09:29;18.20;91.30
10384;DHT22;5238;43.508;4.980;2024-03-22T00:11:55;18.20;91.30
10384;DHT22;5238;43.508;4.980;2024-03-22T00:14:22;18.10;91.30
10384;DHT22;5238;43.508;4.980;2024-03-22T00:16:48;18.00;91.30
10384;DHT22;5238;43.508;4.980;2024-03-22T00:19:16;17.90;91.30
10384;DHT22;5238;43.508;4.980;2024-03-22T00:21:42;17.90;91.30
10384;DHT22;5238;43.508;4.980;2024-03-22T00:24:09;17.80;91.30
10384;DHT22;5238;43.508;4.980;2024-03-22T00:26:35;17.80;91.30
10384;DHT22;5238;43.508;4.980;2024-03-22T00:29:02;17.70;91.30
10384;DHT22;5238;43.508;4.980;2024-03-22T00:31:28;17.70;91.30
10384;DHT22;5238;43.508;4.980;2024-03-22T00:33:55;17.70;91.30
10384;DHT22;5238;43.508;4.980;2024-03-22T00:36:23;17.60;91.30
10384;DHT22;5238;43.508;4.980;2024-03-22T00:38:50;17.60;91.30
10384;DHT22;5238;43.508;4.980;2024-03-22T00:41:16;17.60;91.30
10384;DHT22;5238;43.508;4.980;2024-03-22T00:43:42;17.50;91.30
10384;DHT22;5238;43.508;4.980;2024-03-22T00:46:08;17.50;91.30
10384;DHT22;5238;43.508;4.980;2024-03-22T00:48:35;17.40;91.30
10384;DHT22;5238;43.508;4.980;2024-03-22T00:51:02;17.40;91.30
10384;DHT22;5238;43.508;4.980;2024-03-22T00:53:30;17.40;91.30
10384;DHT22;5238;43.508;4.980;2024-03-22T00:55:57;17.40;91.30
10384;DHT22;5238;43.508;4.980;2024-03-22T00:58:25;17.40;91.30
10384;DHT22;5238;43.508;4.980;2024-03-22T01:00:51;17.40;91.30
10384;DHT22;5238;43.508;4.980;2024-03-22T01:03:18;17.40;91.30
10384;DHT22;5238;43.508;4.980;2024-03-22T01:05:44;17.40;91.30
10384;DHT22;5238;43.508;4.980;2024-03-22T01:08:12;17.40;91.30
10384;DHT22;5238;43.508;4.980;2024-03-22T01:10:40;17.40;91.30
10384;DHT22;5238;43.508;4.980;2024-03-22T01:13:07;17.40;91.30
10384;DHT22;5238;43.508;4.980;2024-03-22T01:15:33;17.30;91.30
10384;DHT22;5238;43.508;4.980;2024-03-22T01:18:01;17.30;91.30
10384;DHT22;5238;43.508;4.980;2024-03-22T01:20:27;17.30;91.30
10384;DHT22;5238;43.508;4.980;2024-03-22T01:22:55;17.30;91.30
10384;DHT22;5238;43.508;4.980;2024-03-22T01:25:21;17.30;91.30
10384;DHT22;5238;43.508;4.980;2024-03-22T01:27:50;17.30;91.30
10384;DHT22;5238;43.508;4.980;2024-03-22T01:30:16;17.30;91.30
10384;DHT22;5238;43.508;4.980;2024-03-22T01:32:42;17.30;91.30
10384;DHT22;5238;43.508;4.980;2024-03-22T01:35:09;17.30;91.30
10384;DHT22;5238;43.508;4.980;2024-03-22T01:37:36;17.30;91.30
10384;DHT22;5238;43.508;4.980;2024-03-22T01:40:03;17.30;91.30
10384;DHT22;5238;43.508;4.980;2024-03-22T01:42:31;17.30;91.30
10384;DHT22;5238;43.508;4.980;2024-03-22T01:44:58;17.40;91.30
10384;DHT22;5238;43.508;4.980;2024-03-22T01:47:25;17.40;91.30
10384;DHT22;5238;43.508;4.980;2024-03-22T01:49:54;17.40;91.30
10384;DHT22;5238;43.508;4.980;2024-03-22T01:52:21;17.40;91.30
10384;DHT22;5238;43.508;4.980;2024-03-22T01:54:48;17.40;91.30
10384;DHT22;5238;43.508;4.980;2024-03-22T01:57:15;17.40;91.30
10384;DHT22;5238;43.508;4.980;2024-03-22T01:59:41;17.30;91.30
10384;DHT22;5238;43.508;4.980;2024-03-22T02:02:10;17.30;91.30
10384;DHT22;5238;43.508;4.980;2024-03-22T02:04:37;17.30;91.30
10384;DHT22;5238;43.508;4.980;2024-03-22T02:07:04;17.30;91.30
10384;DHT22;5238;43.508;4.980;2024-03-22T02:09:30;17.30;91.30
10384;DHT22;5238;43.508;4.980;2024-03-22T02:11:57;17.20;91.30
10384;DHT22;5238;43.508;4.980;2024-03-22T02:14:23;17.20;91.30
10384;DHT22;5238;43.508;4.980;2024-03-22T02:16:51;17.10;91.30
10384;DHT22;5238;43.508;4.980;2024-03-22T02:19:18;17.10;91.30
10384;DHT22;5238;43.508;4.980;2024-03-22T02:21:45;17.00;91.30
10384;DHT22;5238;43.508;4.980;2024-03-22T02:24:12;17.00;91.30
10384;DHT22;5238;43.508;4.980;2024-03-22T02:26:39;16.90;91.30
10384;DHT22;5238;43.508;4.980;2024-03-22T02:29:05;16.90;91.30
10384;DHT22;5238;43.508;4.980;2024-03-22T02:31:32;16.80;91.30
10384;DHT22;5238;43.508;4.980;2024-03-22T02:33:58;16.80;91.30
10384;DHT22;5238;43.508;4.980;2024-03-22T02:36:26;16.80;91.30
10384;DHT22;5238;43.508;4.980;2024-03-22T02:38:52;16.80;91.30
10384;DHT22;5238;43.508;4.980;2024-03-22T02:41:20;16.70;91.30
10384;DHT22;5238;43.508;4.980;2024-03-22T02:43:46;16.70;91.30
10384;DHT22;5238;43.508;4.980;2024-03-22T02:46:13;16.70;91.30
10384;DHT22;5238;43.508;4.980;2024-03-22T02:48:39;16.60;91.30
10384;DHT22;5238;43.508;4.980;2024-03-22T02:51:06;16.60;91.30
10384;DHT22;5238;43.508;4.980;2024-03-22T02:53:32;16.60;91.30
10384;DHT22;5238;43.508;4.980;2024-03-22T02:56:00;16.50;91.30
10384;DHT22;5238;43.508;4.980;2024-03-22T02:58:27;16.50;91.30
10384;DHT22;5238;43.508;4.980;2024-03-22T03:00:54;16.50;91.30
10384;DHT22;5238;43.508;4.980;2024-03-22T03:03:20;16.40;91.30
10384;DHT22;5238;43.508;4.980;2024-03-22T03:05:47;16.40;91.30
10384;DHT22;5238;43.508;4.980;2024-03-22T03:08:13;16.30;91.30
10384;DHT22;5238;43.508;4.980;2024-03-22T03:10:40;16.20;91.30
10384;DHT22;5238;43.508;4.980;2024-03-22T03:13:06;16.20;91.30
10384;DHT22;5238;43.508;4.980;2024-03-22T03:15:34;16.20;91.30
10384;DHT22;5238;43.508;4.980;2024-03-22T03:18:00;16.10;91.30
10384;DHT22;5238;43.508;4.980;2024-03-22T03:20:27;16.10;91.30
10384;DHT22;5238;43.508;4.980;2024-03-22T03:22:53;16.00;91.30
10384;DHT22;5238;43.508;4.980;2024-03-22T03:25:21;16.00;91.30
10384;DHT22;5238;43.508;4.980;2024-03-22T03:27:47;16.00;91.30
10384;DHT22;5238;43.508;4.980;2024-03-22T03:30:14;15.90;91.30
10384;DHT22;5238;43.508;4.980;2024-03-22T03:32:41;15.90;91.30
10384;DHT22;5238;43.508;4.980;2024-03-22T03:35:08;15.90;91.30
10384;DHT22;5238;43.508;4.980;2024-03-22T03:37:34;15.90;91.30
10384;DHT22;5238;43.508;4.980;2024-03-22T03:40:01;15.90;91.30
10384;DHT22;5238;43.508;4.980;2024-03-22T03:42:27;15.90;91.30
10384;DHT22;5238;43.508;4.980;2024-03-22T03:44:54;15.80;91.30
10384;DHT22;5238;43.508;4.980;2024-03-22T03:47:20;15.80;91.30
10384;DHT22;5238;43.508;4.980;2024-03-22T03:49:48;15.80;91.30
10384;DHT22;5238;43.508;4.980;2024-03-22T03:52:14;15.80;91.30
10384;DHT22;5238;43.508;4.980;2024-03-22T03:54:41;15.90;91.30
10384;DHT22;5238;43.508;4.980;2024-03-22T03:57:07;15.90;91.30
10384;DHT22;5238;43.508;4.980;2024-03-22T03:59:34;15.80;91.30
10384;DHT22;5238;43.508;4.980;2024-03-22T04:02:00;15.80;91.30
10384;DHT22;5238;43.508;4.980;2024-03-22T04:04:27;15.80;91.30
10384;DHT22;5238;43.508;4.980;2024-03-22T04:06:54;15.80;91.30
10384;DHT22;5238;43.508;4.980;2024-03-22T04:09:21;15.80;91.30
10384;DHT22;5238;43.508;4.980;2024-03-22T04:11:47;15.80;91.30
10384;DHT22;5238;43.508;4.980;2024-03-22T04:14:14;15.80;91.30
10384;DHT22;5238;43.508;4.980;2024-03-22T04:16:40;15.80;91.30
10384;DHT22;5238;43.508;4.980;2024-03-22T04:19:07;15.80;91.30
10384;DHT22;5238;43.508;4.980;2024-03-22T04:21:33;15.70;91.30
10384;DHT22;5238;43.508;4.980;2024-03-22T04:24:01;15.60;91.30
10384;DHT22;5238;43.508;4.980;2024-03-22T04:26:27;15.60;91.30
10384;DHT22;5238;43.508;4.980;2024-03-22T04:28:54;15.50;91.30
10384;DHT22;5238;43.508;4.980;2024-03-22T04:31:20;15.40;91.30
10384;DHT22;5238;43.508;4.980;2024-03-22T04:33:47;15.40;91.30
10384;DHT22;5238;43.508;4.980;2024-03-22T04:36:13;15.30;91.30
10384;DHT22;5238;43.508;4.980;2024-03-22T04:38:42;15.30;91.30
10384;DHT22;5238;43.508;4.980;2024-03-22T04:41:10;15.20;91.30
10384;DHT22;5238;43.508;4.980;2024-03-22T04:43:37;15.20;91.30
10384;DHT22;5238;43.508;4.980;2024-03-22T04:46:04;15.20;91.30
10384;DHT22;5238;43.508;4.980;2024-03-22T04:48:31;15.20;91.30
10384;DHT22;5238;43.508;4.980;2024-03-22T04:50:57;15.20;91.30
10384;DHT22;5238;43.508;4.980;2024-03-22T04:53:24;15.20;91.30
10384;DHT22;5238;43.508;4.980;2024-03-22T04:55:50;15.30;91.30
10384;DHT22;5238;43.508;4.980;2024-03-22T04:58:19;15.30;91.30
10384;DHT22;5238;43.508;4.980;2024-03-22T05:00:46;15.40;91.30
10384;DHT22;5238;43.508;4.980;2024-03-22T05:03:14;15.40;91.30
10384;DHT22;5238;43.508;4.980;2024-03-22T05:05:41;15.40;91.30
10384;DHT22;5238;43.508;4.980;2024-03-22T05:08:08;15.40;91.30
10384;DHT22;5238;43.508;4.980;2024-03-22T05:10:34;15.50;91.30
10384;DHT22;5238;43.508;4.980;2024-03-22T05:13:01;15.50;91.30
10384;DHT22;5238;43.508;4.980;2024-03-22T05:15:29;15.60;91.30
10384;DHT22;5238;43.508;4.980;2024-03-22T05:17:57;15.60;91.30
10384;DHT22;5238;43.508;4.980;2024-03-22T05:20:24;15.70;91.30
10384;DHT22;5238;43.508;4.980;2024-03-22T05:22:51;15.70;91.30
10384;DHT22;5238;43.508;4.980;2024-03-22T05:25:17;15.70;91.30
10384;DHT22;5238;43.508;4.980;2024-03-22T05:27:45;15.70;91.30
10384;DHT22;5238;43.508;4.980;2024-03-22T05:30:11;15.80;91.30
10384;DHT22;5238;43.508;4.980;2024-03-22T05:32:40;15.80;91.30
10384;DHT22;5238;43.508;4.980;2024-03-22T05:35:07;15.80;91.30
10384;DHT22;5238;43.508;4.980;2024-03-22T05:37:34;15.80;91.30
10384;DHT22;5238;43.508;4.980;2024-03-22T05:40:00;15.80;91.30
10384;DHT22;5238;43.508;4.980;2024-03-22T05:42:27;15.90;91.30
10384;DHT22;5238;43.508;4.980;2024-03-22T05:44:54;15.90;91.30
10384;DHT22;5238;43.508;4.980;2024-03-22T05:47:22;15.90;91.30
10384;DHT22;5238;43.508;4.980;2024-03-22T05:49:49;15.90;91.30
10384;DHT22;5238;43.508;4.980;2024-03-22T05:52:17;15.90;91.30
10384;DHT22;5238;43.508;4.980;2024-03-22T05:54:43;15.90;91.30
10384;DHT22;5238;43.508;4.980;2024-03-22T05:57:10;15.90;91.30
10384;DHT22;5238;43.508;4.980;2024-03-22T05:59:36;15.90;91.30
10384;DHT22;5238;43.508;4.980;2024-03-22T06:02:03;15.90;91.30
10384;DHT22;5238;43.508;4.980;2024-03-22T06:04:29;15.90;91.30
10384;DHT22;5238;43.508;4.980;2024-03-22T06:06:57;16.00;91.30
10384;DHT22;5238;43.508;4.980;2024-03-22T06:09:25;16.00;91.30
10384;DHT22;5238;43.508;4.980;2024-03-22T06:12:00;16.00;91.30
10384;DHT22;5238;43.508;4.980;2024-03-22T06:14:28;16.10;91.30
10384;DHT22;5238;43.508;4.980;2024-03-22T06:16:55;16.10;91.30
10384;DHT22;5238;43.508;4.980;2024-03-22T06:19:21;16.20;91.30
10384;DHT22;5238;43.508;4.980;2024-03-22T06:21:48;16.20;91.30
10384;DHT22;5238;43.508;4.980;2024-03-22T06:24:16;16.20;91.30
10384;DHT22;5238;43.508;4.980;2024-03-22T06:26:43;16.30;91.30
10384;DHT22;5238;43.508;4.980;2024-03-22T06:29:09;16.30;91.30
10384;DHT22;5238;43.508;4.980;2024-03-22T06:31:36;16.40;91.30
10384;DHT22;5238;43.508;4.980;2024-03-22T06:34:02;16.40;91.30
10384;DHT22;5238;43.508;4.980;2024-03-22T06:36:31;16.50;91.30
10384;DHT22;5238;43.508;4.980;2024-03-22T06:38:57;16.60;91.30
10384;DHT22;5238;43.508;4.980;2024-03-22T06:41:27;16.60;91.30
10384;DHT22;5238;43.508;4.980;2024-03-22T06:43:53;16.70;91.30
10384;DHT22;5238;43.508;4.980;2024-03-22T06:46:20;16.90;91.30
10384;DHT22;5238;43.508;4.980;2024-03-22T06:48:46;17.00;91.30
10384;DHT22;5238;43.508;4.980;2024-03-22T06:51:14;17.10;91.30
10384;DHT22;5238;43.508;4.980;2024-03-22T06:53:40;17.20;91.30
10384;DHT22;5238;43.508;4.980;2024-03-22T06:56:07;17.20;91.30
10384;DHT22;5238;43.508;4.980;2024-03-22T06:58:36;17.30;91.30
10384;DHT22;5238;43.508;4.980;2024-03-22T07:01:03;17.30;91.30
10384;DHT22;5238;43.508;4.980;2024-03-22T07:03:29;17.20;91.30
10384;DHT22;5238;43.508;4.980;2024-03-22T07:05:56;17.30;91.30
10384;DHT22;5238;43.508;4.980;2024-03-22T07:08:23;17.40;91.30
10384;DHT22;5238;43.508;4.980;2024-03-22T07:10:50;17.60;91.30
10384;DHT22;5238;43.508;4.980;2024-03-22T07:13:16;17.80;91.30
10384;DHT22;5238;43.508;4.980;2024-03-22T07:15:45;18.00;91.30
10384;DHT22;5238;43.508;4.980;2024-03-22T07:18:13;18.20;91.30
10384;DHT22;5238;43.508;4.980;2024-03-22T07:20:40;18.50;91.30
10384;DHT22;5238;43.508;4.980;2024-03-22T07:23:06;18.70;91.30
10384;DHT22;5238;43.508;4.980;2024-03-22T07:25:33;18.90;91.30
10384;DHT22;5238;43.508;4.980;2024-03-22T07:27:59;19.10;91.30
10384;DHT22;5238;43.508;4.980;2024-03-22T07:30:26;19.40;91.30
10384;DHT22;5238;43.508;4.980;2024-03-22T07:32:53;19.60;91.30
10384;DHT22;5238;43.508;4.980;2024-03-22T07:35:20;19.80;91.30
10384;DHT22;5238;43.508;4.980;2024-03-22T07:37:46;20.10;91.30
10384;DHT22;5238;43.508;4.980;2024-03-22T07:40:14;20.30;91.30
10384;DHT22;5238;43.508;4.980;2024-03-22T07:42:40;20.50;91.30
10384;DHT22;5238;43.508;4.980;2024-03-22T07:45:07;20.80;91.30
10384;DHT22;5238;43.508;4.980;2024-03-22T07:47:34;20.90;91.30
10384;DHT22;5238;43.508;4.980;2024-03-22T07:50:03;21.00;91.30
10384;DHT22;5238;43.508;4.980;2024-03-22T07:52:29;21.00;91.30
10384;DHT22;5238;43.508;4.980;2024-03-22T07:54:56;21.00;91.30
10384;DHT22;5238;43.508;4.980;2024-03-22T07:57:22;21.10;91.30
10384;DHT22;5238;43.508;4.980;2024-03-22T07:59:49;21.20;91.30
10384;DHT22;5238;43.508;4.980;2024-03-22T08:02:15;21.20;91.30
10384;DHT22;5238;43.508;4.980;2024-03-22T08:04:42;21.40;91.30
10384;DHT22;5238;43.508;4.980;2024-03-22T08:07:10;21.70;91.30
10384;DHT22;5238;43.508;4.980;2024-03-22T08:09:37;22.00;91.30
10384;DHT22;5238;43.508;4.980;2024-03-22T08:12:04;22.20;91.30
10384;DHT22;5238;43.508;4.980;2024-03-22T08:14:31;22.40;91.30
10384;DHT22;5238;43.508;4.980;2024-03-22T08:16:57;22.50;91.30
10384;DHT22;5238;43.508;4.980;2024-03-22T08:19:24;22.70;91.30
10384;DHT22;5238;43.508;4.980;2024-03-22T08:21:50;22.70;91.30
10384;DHT22;5238;43.508;4.980;2024-03-22T08:24:19;22.80;91.30
10384;DHT22;5238;43.508;4.980;2024-03-22T08:26:45;22.90;91.30
10384;DHT22;5238;43.508;4.980;2024-03-22T08:29:12;23.00;91.30
10384;DHT22;5238;43.508;4.980;2024-03-22T08:31:40;23.20;91.30
10384;DHT22;5238;43.508;4.980;2024-03-22T08:34:08;23.20;91.30
10384;DHT22;5238;43.508;4.980;2024-03-22T08:36:34;23.30;91.30
10384;DHT22;5238;43.508;4.980;2024-03-22T08:39:03;23.40;91.30
10384;DHT22;5238;43.508;4.980;2024-03-22T08:41:32;23.00;91.30
10384;DHT22;5238;43.508;4.980;2024-03-22T08:43:59;23.00;91.30
10384;DHT22;5238;43.508;4.980;2024-03-22T08:46:24;23.00;91.30
10384;DHT22;5238;43.508;4.980;2024-03-22T08:48:53;23.10;91.30
10384;DHT22;5238;43.508;4.980;2024-03-22T08:51:20;23.40;91.30
10384;DHT22;5238;43.508;4.980;2024-03-22T08:53:47;23.50;91.30
10384;DHT22;5238;43.508;4.980;2024-03-22T08:56:13;23.80;91.30
10384;DHT22;5238;43.508;4.980;2024-03-22T08:58:42;24.00;91.30
10384;DHT22;5238;43.508;4.980;2024-03-22T09:01:08;24.10;91.30
10384;DHT22;5238;43.508;4.980;2024-03-22T09:03:36;24.30;91.30
10384;DHT22;5238;43.508;4.980;2024-03-22T09:06:02;24.50;91.30
10384;DHT22;5238;43.508;4.980;2024-03-22T09:08:29;24.70;91.30
10384;DHT22;5238;43.508;4.980;2024-03-22T09:10:56;24.90;91.30
10384;DHT22;5238;43.508;4.980;2024-03-22T09:13:25;25.00;91.30
10384;DHT22;5238;43.508;4.980;2024-03-22T09:15:57;25.10;91.30
10384;DHT22;5238;43.508;4.980;2024-03-22T09:18:24;25.20;91.30
10384;DHT22;5238;43.508;4.980;2024-03-22T09:20:51;25.40;91.30
10384;DHT22;5238;43.508;4.980;2024-03-22T09:23:18;25.40;91.30
10384;DHT22;5238;43.508;4.980;2024-03-22T09:25:45;25.60;91.30
10384;DHT22;5238;43.508;4.980;2024-03-22T09:28:12;25.70;91.30
10384;DHT22;5238;43.508;4.980;2024-03-22T09:30:39;25.90;91.30
10384;DHT22;5238;43.508;4.980;2024-03-22T09:33:07;26.10;91.30
10384;DHT22;5238;43.508;4.980;2024-03-22T09:35:33;26.20;91.30
10384;DHT22;5238;43.508;4.980;2024-03-22T09:38:00;26.20;91.30
10384;DHT22;5238;43.508;4.980;2024-03-22T09:40:27;26.30;91.30
10384;DHT22;5238;43.508;4.980;2024-03-22T09:43:02;26.30;91.30
10384;DHT22;5238;43.508;4.980;2024-03-22T09:45:29;26.30;91.30
10384;DHT22;5238;43.508;4.980;2024-03-22T09:47:57;26.40;91.30
10384;DHT22;5238;43.508;4.980;2024-03-22T09:50:25;26.40;91.30
10384;DHT22;5238;43.508;4.980;2024-03-22T09:52:53;26.50;91.30
10384;DHT22;5238;43.508;4.980;2024-03-22T09:55:22;26.70;91.30
10384;DHT22;5238;43.508;4.980;2024-03-22T09:57:49;26.80;91.30
10384;DHT22;5238;43.508;4.980;2024-03-22T10:00:17;26.80;91.30
10384;DHT22;5238;43.508;4.980;2024-03-22T10:02:46;26.80;91.30
10384;DHT22;5238;43.508;4.980;2024-03-22T10:05:12;26.90;91.30
10384;DHT22;5238;43.508;4.980;2024-03-22T10:07:41;27.00;91.30
10384;DHT22;5238;43.508;4.980;2024-03-22T10:10:07;27.10;91.30
10384;DHT22;5238;43.508;4.980;2024-03-22T10:12:34;27.30;91.30
10384;DHT22;5238;43.508;4.980;2024-03-22T10:15:00;27.40;91.30
10384;DHT22;5238;43.508;4.980;2024-03-22T10:17:28;27.50;91.30
10384;DHT22;5238;43.508;4.980;2024-03-22T10:19:55;27.50;91.30
10384;DHT22;5238;43.508;4.980;2024-03-22T10:22:22;27.60;91.30
10384;DHT22;5238;43.508;4.980;2024-03-22T10:24:51;27.60;91.30
10384;DHT22;5238;43.508;4.980;2024-03-22T10:27:19;27.50;91.30
10384;DHT22;5238;43.508;4.980;2024-03-22T10:29:46;27.60;91.30
10384;DHT22;5238;43.508;4.980;2024-03-22T10:32:16;27.60;91.30
10384;DHT22;5238;43.508;4.980;2024-03-22T10:34:42;27.70;91.30
10384;DHT22;5238;43.508;4.980;2024-03-22T10:37:13;27.70;91.30
10384;DHT22;5238;43.508;4.980;2024-03-22T10:39:40;27.70;91.30
10384;DHT22;5238;43.508;4.980;2024-03-22T10:42:10;27.60;91.30
10384;DHT22;5238;43.508;4.980;2024-03-22T10:44:36;27.60;91.30
10384;DHT22;5238;43.508;4.980;2024-03-22T10:47:04;27.60;91.30
10384;DHT22;5238;43.508;4.980;2024-03-22T10:49:36;27.60;91.30
10384;DHT22;5238;43.508;4.980;2024-03-22T10:52:03;27.60;91.30
10384;DHT22;5238;43.508;4.980;2024-03-22T10:54:34;27.60;91.30
10384;DHT22;5238;43.508;4.980;2024-03-22T10:57:02;27.60;91.30
10384;DHT22;5238;43.508;4.980;2024-03-22T10:59:35;27.60;91.30
10384;DHT22;5238;43.508;4.980;2024-03-22T11:02:03;27.60;91.30
10384;DHT22;5238;43.508;4.980;2024-03-22T11:04:33;27.60;91.30
10384;DHT22;5238;43.508;4.980;2024-03-22T11:06:59;27.70;91.30
10384;DHT22;5238;43.508;4.980;2024-03-22T11:09:29;27.70;91.30
10384;DHT22;5238;43.508;4.980;2024-03-22T11:11:56;27.70;91.30
10384;DHT22;5238;43.508;4.980;2024-03-22T11:14:24;27.60;91.30
10384;DHT22;5238;43.508;4.980;2024-03-22T11:16:52;27.50;91.30
10384;DHT22;5238;43.508;4.980;2024-03-22T11:19:19;27.40;91.30
10384;DHT22;5238;43.508;4.980;2024-03-22T11:21:45;27.40;91.30
10384;DHT22;5238;43.508;4.980;2024-03-22T11:24:12;27.30;91.30
10384;DHT22;5238;43.508;4.980;2024-03-22T11:26:38;27.10;91.30
10384;DHT22;5238;43.508;4.980;2024-03-22T11:29:05;27.00;91.30
10384;DHT22;5238;43.508;4.980;2024-03-22T11:31:32;26.80;91.30
10384;DHT22;5238;43.508;4.980;2024-03-22T11:34:00;26.60;91.30
10384;DHT22;5238;43.508;4.980;2024-03-22T11:36:26;26.40;91.30
10384;DHT22;5238;43.508;4.980;2024-03-22T11:38:53;26.20;91.30
10384;DHT22;5238;43.508;4.980;2024-03-22T11:41:22;26.10;91.30
10384;DHT22;5238;43.508;4.980;2024-03-22T11:43:51;26.00;91.30
10384;DHT22;5238;43.508;4.980;2024-03-22T11:46:18;25.80;91.30
10384;DHT22;5238;43.508;4.980;2024-03-22T11:48:51;25.70;91.30
10384;DHT22;5238;43.508;4.980;2024-03-22T11:51:19;25.60;91.30
10384;DHT22;5238;43.508;4.980;2024-03-22T11:53:50;25.50;91.30
10384;DHT22;5238;43.508;4.980;2024-03-22T11:56:18;25.40;91.30
10384;DHT22;5238;43.508;4.980;2024-03-22T11:58:46;25.20;91.30
10384;DHT22;5238;43.508;4.980;2024-03-22T12:01:13;25.00;91.30
10384;DHT22;5238;43.508;4.980;2024-03-22T12:03:40;24.80;91.30
10384;DHT22;5238;43.508;4.980;2024-03-22T12:06:10;24.60;91.30
10384;DHT22;5238;43.508;4.980;2024-03-22T12:08:39;24.50;91.30
10384;DHT22;5238;43.508;4.980;2024-03-22T12:11:07;24.30;91.30
10384;DHT22;5238;43.508;4.980;2024-03-22T12:13:34;24.10;91.30
10384;DHT22;5238;43.508;4.980;2024-03-22T12:16:00;23.90;91.30
10384;DHT22;5238;43.508;4.980;2024-03-22T12:18:27;23.70;91.30
10384;DHT22;5238;43.508;4.980;2024-03-22T12:20:53;23.60;91.30
10384;DHT22;5238;43.508;4.980;2024-03-22T12:23:20;23.50;91.30
10384;DHT22;5238;43.508;4.980;2024-03-22T12:25:48;23.40;91.30
10384;DHT22;5238;43.508;4.980;2024-03-22T12:28:16;23.30;91.30
10384;DHT22;5238;43.508;4.980;2024-03-22T12:30:42;23.20;91.30
10384;DHT22;5238;43.508;4.980;2024-03-22T12:33:09;23.10;91.30
10384;DHT22;5238;43.508;4.980;2024-03-22T12:35:36;22.90;91.30
10384;DHT22;5238;43.508;4.980;2024-03-22T12:38:03;22.90;91.30
10384;DHT22;5238;43.508;4.980;2024-03-22T12:40:29;22.80;91.30
10384;DHT22;5238;43.508;4.980;2024-03-22T12:42:59;22.70;91.30
10384;DHT22;5238;43.508;4.980;2024-03-22T12:45:25;22.50;91.30
10384;DHT22;5238;43.508;4.980;2024-03-22T12:47:52;22.50;91.30
10384;DHT22;5238;43.508;4.980;2024-03-22T12:50:18;22.40;91.30
10384;DHT22;5238;43.508;4.980;2024-03-22T12:52:45;22.30;91.30
10384;DHT22;5238;43.508;4.980;2024-03-22T12:55:11;22.30;91.30
10384;DHT22;5238;43.508;4.980;2024-03-22T12:57:38;22.20;91.30
10384;DHT22;5238;43.508;4.980;2024-03-22T13:00:08;22.10;91.30
10384;DHT22;5238;43.508;4.980;2024-03-22T13:02:39;22.00;91.30
10384;DHT22;5238;43.508;4.980;2024-03-22T13:05:05;22.00;91.30
10384;DHT22;5238;43.508;4.980;2024-03-22T13:07:32;21.90;91.30
10384;DHT22;5238;43.508;4.980;2024-03-22T13:09:58;21.90;91.30
10384;DHT22;5238;43.508;4.980;2024-03-22T13:12:26;21.80;91.30
10384;DHT22;5238;43.508;4.980;2024-03-22T13:14:52;21.80;91.30
10384;DHT22;5238;43.508;4.980;2024-03-22T13:17:21;21.80;91.30
10384;DHT22;5238;43.508;4.980;2024-03-22T13:19:47;21.70;91.30
10384;DHT22;5238;43.508;4.980;2024-03-22T13:22:15;21.60;91.30
10384;DHT22;5238;43.508;4.980;2024-03-22T13:24:44;21.60;91.30
10384;DHT22;5238;43.508;4.980;2024-03-22T13:27:11;21.50;91.30
10384;DHT22;5238;43.508;4.980;2024-03-22T13:29:38;21.50;91.30
10384;DHT22;5238;43.508;4.980;2024-03-22T13:32:05;21.40;91.30
10384;DHT22;5238;43.508;4.980;2024-03-22T13:34:34;21.40;91.30
10384;DHT22;5238;43.508;4.980;2024-03-22T13:37:01;21.30;91.30
10384;DHT22;5238;43.508;4.980;2024-03-22T13:39:27;21.30;91.30
10384;DHT22;5238;43.508;4.980;2024-03-22T13:41:55;21.30;91.30
10384;DHT22;5238;43.508;4.980;2024-03-22T13:44:21;21.20;91.30
10384;DHT22;5238;43.508;4.980;2024-03-22T13:46:49;21.20;91.30
10384;DHT22;5238;43.508;4.980;2024-03-22T13:49:15;21.10;91.30
10384;DHT22;5238;43.508;4.980;2024-03-22T13:51:44;21.10;91.30
10384;DHT22;5238;43.508;4.980;2024-03-22T13:54:11;21.00;91.30
10384;DHT22;5238;43.508;4.980;2024-03-22T13:56:38;21.00;91.30
10384;DHT22;5238;43.508;4.980;2024-03-22T13:59:04;21.00;91.30
10384;DHT22;5238;43.508;4.980;2024-03-22T14:01:33;20.90;91.30
10384;DHT22;5238;43.508;4.980;2024-03-22T14:03:59;20.80;91.30
10384;DHT22;5238;43.508;4.980;2024-03-22T14:06:26;20.80;91.30
10384;DHT22;5238;43.508;4.980;2024-03-22T14:08:53;20.80;91.30
10384;DHT22;5238;43.508;4.980;2024-03-22T14:11:25;20.70;91.30
10384;DHT22;5238;43.508;4.980;2024-03-22T14:13:51;20.70;91.30
10384;DHT22;5238;43.508;4.980;2024-03-22T14:16:19;20.70;91.30
10384;DHT22;5238;43.508;4.980;2024-03-22T14:18:44;20.70;91.30
10384;DHT22;5238;43.508;4.980;2024-03-22T14:21:11;20.60;91.30
10384;DHT22;5238;43.508;4.980;2024-03-22T14:23:42;20.60;91.30
10384;DHT22;5238;43.508;4.980;2024-03-22T14:26:11;20.60;91.30
10384;DHT22;5238;43.508;4.980;2024-03-22T14:28:37;20.60;91.30
10384;DHT22;5238;43.508;4.980;2024-03-22T14:31:05;20.50;91.30
10384;DHT22;5238;43.508;4.980;2024-03-22T14:33:34;20.50;91.30
10384;DHT22;5238;43.508;4.980;2024-03-22T14:36:02;20.50;91.30
10384;DHT22;5238;43.508;4.980;2024-03-22T14:38:28;20.40;91.30
10384;DHT22;5238;43.508;4.980;2024-03-22T14:40:54;20.40;91.30
10384;DHT22;5238;43.508;4.980;2024-03-22T14:43:23;20.40;91.30
10384;DHT22;5238;43.508;4.980;2024-03-22T14:45:50;20.30;91.30
10384;DHT22;5238;43.508;4.980;2024-03-22T14:48:18;20.30;91.30
10384;DHT22;5238;43.508;4.980;2024-03-22T14:50:44;20.30;91.30
10384;DHT22;5238;43.508;4.980;2024-03-22T14:53:11;20.30;91.30
10384;DHT22;5238;43.508;4.980;2024-03-22T14:55:37;20.20;91.30
10384;DHT22;5238;43.508;4.980;2024-03-22T14:58:06;20.20;91.30
10384;DHT22;5238;43.508;4.980;2024-03-22T15:00:34;20.20;91.30
10384;DHT22;5238;43.508;4.980;2024-03-22T15:03:01;20.10;91.30
10384;DHT22;5238;43.508;4.980;2024-03-22T15:05:27;20.10;91.30
10384;DHT22;5238;43.508;4.980;2024-03-22T15:07:56;20.00;91.30
10384;DHT22;5238;43.508;4.980;2024-03-22T15:10:22;19.90;91.30
10384;DHT22;5238;43.508;4.980;2024-03-22T15:12:49;19.90;91.30
10384;DHT22;5238;43.508;4.980;2024-03-22T15:15:16;19.90;91.30
10384;DHT22;5238;43.508;4.980;2024-03-22T15:17:45;19.90;91.30
10384;DHT22;5238;43.508;4.980;2024-03-22T15:20:11;19.80;91.30
10384;DHT22;5238;43.508;4.980;2024-03-22T15:22:39;19.80;91.30
10384;DHT22;5238;43.508;4.980;2024-03-22T15:25:05;19.80;91.30
10384;DHT22;5238;43.508;4.980;2024-03-22T15:27:32;19.80;91.30
10384;DHT22;5238;43.508;4.980;2024-03-22T15:29:58;19.70;91.30
10384;DHT22;5238;43.508;4.980;2024-03-22T15:32:26;19.70;91.30
10384;DHT22;5238;43.508;4.980;2024-03-22T15:34:55;19.60;91.30
10384;DHT22;5238;43.508;4.980;2024-03-22T15:37:22;19.60;91.30
10384;DHT22;5238;43.508;4.980;2024-03-22T15:39:49;19.50;91.30
10384;DHT22;5238;43.508;4.980;2024-03-22T15:42:16;19.50;91.30
10384;DHT22;5238;43.508;4.980;2024-03-22T15:44:42;19.50;91.30